Item Display Status Serial CT Sensor

Mooring Depth: 1 m

 

Deployed Sensor

  • Serial Number: 12349
  • NDBC Property Number: 38547
  • Start Date: 5/26/2023 (13:26:21 Z)
  • End Date: Currently Active
Water Temperature [°C]     6 entries per hour
Showing data from 3/5/2024 (03:00:00 Z) to 3/4/2024 (00:00:01 Z)
Previous Next [ Day | 3-Days | 7-Days ]
First Last
Prev [ Day | 3-Days | 7-Days ] Next
First Last

Start Time:     :
End Time:     :     
Time (in GMT) :00 :50 :40 :30 :20 :10
Previous Next [ Day | 3-Days | 7-Days ]
First Last
Prev [ Day | 3-Days | 7-Days ] Next
First Last


123 => good data
MM => data is determined as missing
-- => data not received/configured
Back to Top Back to Top
3/5/2024 03:00 to 2:10 29.282 29.274 29.370 29.352 29.324 29.308
3/5/2024 02:00 to 1:10 29.237 29.359 29.315 29.332 29.281 29.258
3/5/2024 01:00 to 0:10 29.255 29.230 29.247 29.234 29.243 29.200
3/5/2024 00:00 to 23:10 29.195 29.172 29.179 29.145 29.120 29.127
3/4/2024 23:00 to 22:10 29.076 29.095 29.072 29.030 29.066 29.052
3/4/2024 22:00 to 21:10 29.010 29.020 29.012 29.000 28.983 28.993
3/4/2024 21:00 to 20:10 28.973 28.961 28.969 28.954 28.942 28.919
3/4/2024 20:00 to 19:10 28.921 28.914 28.911 28.909 28.908 28.905
3/4/2024 19:00 to 18:10 28.909 28.910 28.902 28.902 28.917 28.906
3/4/2024 18:00 to 17:10 28.904 28.893 28.901 28.902 28.896 28.913
3/4/2024 17:00 to 16:10 28.908 28.914 28.906 28.917 28.904 28.914
3/4/2024 16:00 to 15:10 28.918 28.913 28.891 28.887 28.894 28.914
3/4/2024 15:00 to 14:10 28.896 28.908 28.893 28.904 28.907 28.893
3/4/2024 14:00 to 13:10 28.908 28.919 28.923 28.917 28.926 28.936
3/4/2024 13:00 to 12:10 28.937 28.936 28.941 28.933 28.924 28.921
3/4/2024 12:00 to 11:10 28.928 28.918 28.927 28.928 28.942 --
3/4/2024 11:00 to 10:10 28.957 28.953 28.952 28.958 28.984 28.965
3/4/2024 10:00 to 9:10 28.945 28.962 28.973 28.982 28.988 28.990
3/4/2024 09:00 to 8:10 29.001 29.000 28.993 28.993 28.995 29.020
3/4/2024 08:00 to 7:10 29.007 29.009 28.995 28.998 28.996 29.013
3/4/2024 07:00 to 6:10 29.022 29.042 29.053 29.068 29.071 29.056
3/4/2024 06:00 to 5:10 29.057 29.059 29.072 29.082 29.088 29.093
3/4/2024 05:00 to 4:10 29.099 29.102 29.129 29.145 29.111 29.135
3/4/2024 04:00 to 3:10 29.137 29.130 29.148 29.163 29.123 29.161
3/4/2024 03:00 to 2:10 29.174 29.182 29.175 29.181 29.181 29.191
3/4/2024 02:00 to 1:10 29.142 29.130 29.129 29.102 29.116 29.094
3/4/2024 01:00 to 0:10 29.100 29.113 29.084 29.078 29.081 29.051

 

 

 

Conductivity [S/m]     6 entries per hour
Showing data from 3/5/2024 (03:00:00 Z) to 3/4/2024 (00:00:01 Z)
Previous Next [ Day | 3-Days | 7-Days ]
First Last
Prev [ Day | 3-Days | 7-Days ] Next
First Last

Start Time:     :
End Time:     :     
Time (in GMT) :00 :50 :40 :30 :20 :10
Previous Next [ Day | 3-Days | 7-Days ]
First Last
Prev [ Day | 3-Days | 7-Days ] Next
First Last


123 => good data
MM => data is determined as missing
-- => data not received/configured
Back to Top Back to Top
3/5/2024 03:00 to 2:10 5.77966 5.77966 5.79177 5.78858 5.78523 5.78378
3/5/2024 02:00 to 1:10 5.77628 5.78932 5.78513 5.78534 5.78114 5.77810
3/5/2024 01:00 to 0:10 5.77788 5.77562 5.77730 5.77595 5.77742 5.77169
3/5/2024 00:00 to 23:10 5.77135 5.76867 5.76987 5.76531 5.76376 5.76399
3/4/2024 23:00 to 22:10 5.75913 5.76142 5.75831 5.75369 5.75658 5.75490
3/4/2024 22:00 to 21:10 5.75061 5.75226 5.75141 5.74970 5.74833 5.74929
3/4/2024 21:00 to 20:10 5.74675 5.74579 5.74631 5.74478 5.74363 5.74128
3/4/2024 20:00 to 19:10 5.74127 5.74069 5.74043 5.74043 5.74021 5.74023
3/4/2024 19:00 to 18:10 5.74046 5.74056 5.73986 5.73993 5.74113 5.74050
3/4/2024 18:00 to 17:10 5.74011 5.73958 5.74023 5.74041 5.74017 5.74108
3/4/2024 17:00 to 16:10 5.74065 5.74135 5.74111 5.74196 5.74086 5.74179
3/4/2024 16:00 to 15:10 5.74210 5.74166 5.73946 5.73939 5.73986 5.74186
3/4/2024 15:00 to 14:10 5.74026 5.74126 5.73996 5.74073 5.74149 5.73966
3/4/2024 14:00 to 13:10 5.74156 5.74245 5.74331 5.74251 5.74321 5.74437
3/4/2024 13:00 to 12:10 5.74435 5.74419 5.74469 5.74408 5.74306 5.74254
3/4/2024 12:00 to 11:10 5.74358 5.74209 5.74290 5.74320 5.74474 5.74521
3/4/2024 11:00 to 10:10 5.74611 5.74521 5.74520 5.74605 5.74859 5.74678
3/4/2024 10:00 to 9:10 5.74508 5.74640 5.74746 5.74830 5.74896 5.74901
3/4/2024 09:00 to 8:10 5.74997 5.74984 5.74896 5.74913 5.74935 5.75181
3/4/2024 08:00 to 7:10 5.75053 5.75116 5.74955 5.74985 5.74951 5.75145
3/4/2024 07:00 to 6:10 5.75232 5.75464 5.75566 5.75712 5.75773 5.75608
3/4/2024 06:00 to 5:10 5.75567 5.75571 5.75733 5.75775 5.75793 5.75844
3/4/2024 05:00 to 4:10 5.75841 5.75828 5.76299 5.76503 5.76170 5.76459
3/4/2024 04:00 to 3:10 5.76503 5.76455 5.76660 5.76829 5.76386 5.76818
3/4/2024 03:00 to 2:10 5.76826 5.77051 5.76951 5.76996 5.76987 5.77036
3/4/2024 02:00 to 1:10 5.76578 5.76513 5.76425 5.76159 5.76241 5.76034
3/4/2024 01:00 to 0:10 5.76129 5.76264 5.75982 5.75910 5.75928 5.75656

 

 

 

Salinity [psu]     6 entries per hour
Showing data from 3/5/2024 (03:00:00 Z) to 3/4/2024 (00:00:01 Z)
Previous Next [ Day | 3-Days | 7-Days ]
First Last
Prev [ Day | 3-Days | 7-Days ] Next
First Last

Start Time:     :
End Time:     :     
Time (in GMT) :00 :50 :40 :30 :20 :10
Previous Next [ Day | 3-Days | 7-Days ]
First Last
Prev [ Day | 3-Days | 7-Days ] Next
First Last


123 => good data
MM => data is determined as missing
-- => data not received/configured
Back to Top Back to Top
3/5/2024 03:00 to 2:10 35.14 35.15 35.16 35.15 35.15 35.15
3/5/2024 02:00 to 1:10 35.15 35.15 35.15 35.14 35.15 35.15
3/5/2024 01:00 to 0:10 35.15 35.15 35.15 35.15 35.15 35.15
3/5/2024 00:00 to 23:10 35.15 35.15 35.15 35.14 35.15 35.15
3/4/2024 23:00 to 22:10 35.15 35.15 35.15 35.15 35.14 35.14
3/4/2024 22:00 to 21:10 35.14 35.15 35.15 35.14 35.15 35.15
3/4/2024 21:00 to 20:10 35.14 35.14 35.14 35.14 35.14 35.14
3/4/2024 20:00 to 19:10 35.14 35.14 35.14 35.15 35.14 35.15
3/4/2024 19:00 to 18:10 35.15 35.15 35.15 35.15 35.14 35.15
3/4/2024 18:00 to 17:10 35.15 35.15 35.15 35.15 35.15 35.15
3/4/2024 17:00 to 16:10 35.15 35.15 35.15 35.15 35.15 35.15
3/4/2024 16:00 to 15:10 35.15 35.15 35.15 35.15 35.15 35.15
3/4/2024 15:00 to 14:10 35.15 35.15 35.15 35.15 35.15 35.15
3/4/2024 14:00 to 13:10 35.15 35.15 35.16 35.15 35.15 35.15
3/4/2024 13:00 to 12:10 35.15 35.15 35.15 35.15 35.15 35.15
3/4/2024 12:00 to 11:10 35.15 35.15 35.15 35.15 35.15 --
3/4/2024 11:00 to 10:10 35.15 35.15 35.15 35.15 35.15 35.15
3/4/2024 10:00 to 9:10 35.15 35.15 35.15 35.15 35.15 35.14
3/4/2024 09:00 to 8:10 35.14 35.14 35.14 35.14 35.14 35.14
3/4/2024 08:00 to 7:10 35.14 35.15 35.14 35.14 35.14 35.14
3/4/2024 07:00 to 6:10 35.14 35.15 35.14 35.14 35.15 35.14
3/4/2024 06:00 to 5:10 35.14 35.14 35.14 35.14 35.13 35.13
3/4/2024 05:00 to 4:10 35.13 35.13 35.14 35.14 35.14 35.15
3/4/2024 04:00 to 3:10 35.15 35.15 35.15 35.15 35.15 35.15
3/4/2024 03:00 to 2:10 35.14 35.15 35.15 35.15 35.15 35.14
3/4/2024 02:00 to 1:10 35.15 35.15 35.15 35.15 35.14 35.15
3/4/2024 01:00 to 0:10 35.15 35.15 35.15 35.15 35.15 35.15